Terminal Aerodrome Forecast
Issued by NWS

Home | Current Version | Previous Version | Text Only | Print | Product List | Glossary On
Versions: 1 2 3 4 5 6 7 8 9 10 11 12 13 14
806
FTUS44 KLZK 251730
TAFHOT
TAF
KHOT 251730Z 2518/2618 22006KT P6SM SCT040
     FM260100 21003KT P6SM SCT250
     FM261500 24005KT P6SM SKC=

USA.gov is the U.S. government's official web portal to all federal, state and local government web resources and services.